createdAt,value
2017-12-13T00:02:07.531Z,34.00
2017-12-13T00:04:36.077Z,34.20
2017-12-13T00:07:03.908Z,34.20
2017-12-13T00:09:31.726Z,34.00
2017-12-13T00:11:59.478Z,34.10
2017-12-13T00:14:27.225Z,34.20
2017-12-13T00:16:55.024Z,34.00
2017-12-13T00:19:23.547Z,33.40
2017-12-13T00:21:51.335Z,33.40
2017-12-13T00:24:19.098Z,33.90
2017-12-13T00:26:46.880Z,33.80
2017-12-13T00:29:14.668Z,33.60
2017-12-13T00:31:43.211Z,32.60
2017-12-13T00:34:10.949Z,32.60
2017-12-13T00:36:38.735Z,32.70
2017-12-13T00:39:06.493Z,32.30
2017-12-13T00:41:34.269Z,32.50
2017-12-13T00:44:02.024Z,33.10
2017-12-13T00:46:29.823Z,33.50
2017-12-13T00:48:57.659Z,33.70
2017-12-13T00:51:25.491Z,33.90
2017-12-13T00:53:53.328Z,33.50
2017-12-13T00:56:21.941Z,33.30
2017-12-13T00:58:49.719Z,33.30
2017-12-13T01:01:17.486Z,32.80
2017-12-13T01:03:45.353Z,33.70
2017-12-13T01:06:13.191Z,34.20
2017-12-13T01:08:40.939Z,34.30
2017-12-13T01:11:09.500Z,35.30
2017-12-13T01:13:37.276Z,35.20
2017-12-13T01:16:05.059Z,35.40
2017-12-13T01:18:33.656Z,36.00
2017-12-13T01:21:01.499Z,36.00
2017-12-13T01:23:30.027Z,36.70
2017-12-13T01:25:57.785Z,36.70
2017-12-13T01:28:25.540Z,36.60
2017-12-13T01:30:53.367Z,37.00
2017-12-13T01:33:21.871Z,36.40
2017-12-13T01:35:58.477Z,36.30
2017-12-13T01:38:26.260Z,36.30
2017-12-13T01:40:54.139Z,36.00
2017-12-13T01:43:21.913Z,35.70
2017-12-13T01:45:50.503Z,35.60
2017-12-13T01:48:19.093Z,36.00
2017-12-13T01:50:47.660Z,36.10
2017-12-13T01:53:15.448Z,36.10
2017-12-13T01:55:43.239Z,35.90
2017-12-13T01:58:11.008Z,35.10
2017-12-13T02:00:38.839Z,35.10
2017-12-13T02:03:06.807Z,34.90
2017-12-13T02:05:35.476Z,34.00
2017-12-13T02:08:04.047Z,33.70
2017-12-13T02:10:31.871Z,33.60
2017-12-13T02:12:59.717Z,33.60
2017-12-13T02:15:27.516Z,33.40
2017-12-13T02:17:55.280Z,33.50
2017-12-13T02:20:23.061Z,33.60
2017-12-13T02:22:50.852Z,33.50
2017-12-13T02:25:19.463Z,33.80
2017-12-13T02:27:47.334Z,33.80
2017-12-13T02:30:15.121Z,34.40
2017-12-13T02:32:42.858Z,35.00
2017-12-13T02:35:10.629Z,35.30
2017-12-13T02:37:38.397Z,35.30
2017-12-13T02:40:17.815Z,35.20
2017-12-13T02:42:45.598Z,34.80
2017-12-13T02:45:13.444Z,34.20
2017-12-13T02:47:41.202Z,33.80
2017-12-13T02:50:08.979Z,32.90
2017-12-13T02:52:36.743Z,32.80
2017-12-13T02:55:04.571Z,33.40
2017-12-13T02:57:32.410Z,32.70
2017-12-13T03:00:00.315Z,31.80
2017-12-13T03:02:28.887Z,32.20
2017-12-13T03:04:56.738Z,32.10
2017-12-13T03:07:24.544Z,32.10
2017-12-13T03:09:52.335Z,32.50
2017-12-13T03:12:20.199Z,33.00
2017-12-13T03:14:49.733Z,33.60
2017-12-13T03:17:17.499Z,33.70
2017-12-13T03:19:45.315Z,34.10
2017-12-13T03:22:13.080Z,34.40
2017-12-13T03:24:40.844Z,34.60
2017-12-13T03:27:08.610Z,34.90
2017-12-13T03:29:36.391Z,35.10
2017-12-13T03:32:04.251Z,35.30
2017-12-13T03:34:32.078Z,35.30
2017-12-13T03:37:00.692Z,35.50
2017-12-13T03:39:28.500Z,35.40
2017-12-13T03:41:56.320Z,35.70
2017-12-13T03:44:24.123Z,35.70
2017-12-13T03:46:51.991Z,36.40
2017-12-13T03:49:19.856Z,36.10
2017-12-13T03:51:47.719Z,36.30
2017-12-13T03:54:15.612Z,36.50
2017-12-13T03:56:44.160Z,36.20
2017-12-13T03:59:11.962Z,36.20
2017-12-13T04:01:40.565Z,36.10
2017-12-13T04:04:08.368Z,36.00
2017-12-13T04:06:36.262Z,36.10
2017-12-13T04:09:04.304Z,36.50
2017-12-13T04:11:32.103Z,37.20
2017-12-13T04:13:59.922Z,37.60
2017-12-13T04:16:27.737Z,38.10
2017-12-13T04:18:55.686Z,38.50
2017-12-13T04:21:23.524Z,38.40
2017-12-13T04:23:51.357Z,38.50
2017-12-13T04:26:19.205Z,38.30
2017-12-13T04:28:47.754Z,38.30
2017-12-13T04:31:15.553Z,38.20
2017-12-13T04:33:44.144Z,37.80
2017-12-13T04:36:12.735Z,37.40
2017-12-13T04:38:40.543Z,37.40
2017-12-13T04:41:08.352Z,37.30
2017-12-13T04:43:36.998Z,37.10
2017-12-13T04:46:04.826Z,37.20
2017-12-13T04:48:32.662Z,36.90
2017-12-13T04:51:01.320Z,36.80
2017-12-13T04:53:29.175Z,36.80
2017-12-13T04:55:56.987Z,36.60
2017-12-13T04:58:25.556Z,36.60
2017-12-13T05:00:53.492Z,36.60
2017-12-13T05:03:21.297Z,36.60
2017-12-13T05:05:49.923Z,37.20
2017-12-13T05:08:17.788Z,37.20
2017-12-13T05:10:45.762Z,37.50
2017-12-13T05:13:13.604Z,37.80
2017-12-13T05:15:42.224Z,38.40
2017-12-13T05:18:10.056Z,38.30
2017-12-13T05:20:37.929Z,39.20
2017-12-13T05:23:05.764Z,38.80
2017-12-13T05:25:34.396Z,39.40
2017-12-13T05:28:02.231Z,39.30
2017-12-13T05:30:30.165Z,39.20
2017-12-13T05:32:58.752Z,39.50
2017-12-13T05:35:27.304Z,39.50
2017-12-13T05:37:55.181Z,39.50
2017-12-13T05:40:23.155Z,39.70
2017-12-13T05:42:50.980Z,40.00
2017-12-13T05:45:18.778Z,40.20
2017-12-13T05:47:46.647Z,40.50
2017-12-13T05:50:14.435Z,40.70
2017-12-13T05:52:43.058Z,40.50
2017-12-13T05:55:10.906Z,40.50
2017-12-13T05:57:38.798Z,40.70
2017-12-13T06:00:06.692Z,41.10
2017-12-13T06:02:34.480Z,41.40
2017-12-13T06:05:03.054Z,41.30
2017-12-13T06:07:30.902Z,41.30
2017-12-13T06:09:58.811Z,41.50
2017-12-13T06:12:26.718Z,41.80
2017-12-13T06:14:54.568Z,42.20
2017-12-13T06:17:22.423Z,42.30
2017-12-13T06:19:50.284Z,42.30
2017-12-13T06:22:18.864Z,43.30
2017-12-13T06:24:47.462Z,43.20
2017-12-13T06:27:15.264Z,43.30
2017-12-13T06:29:43.054Z,43.50
2017-12-13T06:32:10.889Z,43.60
2017-12-13T06:34:38.697Z,43.50
2017-12-13T06:37:07.422Z,43.40
2017-12-13T06:39:35.342Z,43.40
2017-12-13T06:42:03.934Z,43.80
2017-12-13T06:44:32.567Z,43.80
2017-12-13T06:47:00.375Z,43.80
2017-12-13T06:49:28.155Z,43.80
2017-12-13T06:51:56.759Z,44.00
2017-12-13T06:54:24.581Z,43.90
2017-12-13T06:56:52.451Z,44.20
2017-12-13T06:59:20.289Z,44.50
2017-12-13T07:01:48.083Z,44.80
2017-12-13T07:04:15.896Z,45.20
2017-12-13T07:06:43.717Z,45.60
2017-12-13T07:09:12.275Z,46.20
2017-12-13T07:11:40.171Z,46.20
2017-12-13T07:14:08.780Z,46.90
2017-12-13T07:16:36.605Z,46.90
2017-12-13T07:19:04.465Z,47.10
2017-12-13T07:21:32.294Z,47.20
2017-12-13T07:24:00.094Z,47.50
2017-12-13T07:26:27.936Z,47.90
2017-12-13T07:28:55.754Z,48.20
2017-12-13T07:31:23.643Z,48.40
2017-12-13T07:33:51.464Z,48.60
2017-12-13T07:36:19.279Z,48.80
2017-12-13T07:38:47.088Z,49.00
2017-12-13T07:41:14.898Z,49.20
2017-12-13T07:43:42.773Z,49.20
2017-12-13T07:46:10.613Z,49.20
2017-12-13T07:48:38.472Z,49.40
2017-12-13T07:51:07.113Z,49.50
2017-12-13T07:53:34.927Z,49.50
2017-12-13T07:56:03.550Z,49.20
2017-12-13T07:58:31.432Z,49.20
2017-12-13T08:00:59.272Z,49.10
2017-12-13T08:03:27.051Z,48.70
2017-12-13T08:05:54.893Z,48.60
2017-12-13T08:08:22.783Z,48.60
2017-12-13T08:10:50.611Z,48.70
2017-12-13T08:13:18.565Z,49.00
2017-12-13T08:15:47.162Z,49.10
2017-12-13T08:18:15.724Z,48.90
2017-12-13T08:20:43.570Z,49.00
2017-12-13T08:23:11.352Z,48.30
2017-12-13T08:25:39.258Z,47.60
2017-12-13T08:28:07.097Z,47.30
2017-12-13T08:30:35.686Z,47.00
2017-12-13T08:33:04.280Z,46.80
2017-12-13T08:35:32.125Z,46.90
2017-12-13T08:38:00.731Z,46.10
2017-12-13T08:40:28.591Z,46.10
2017-12-13T08:42:57.190Z,45.40
2017-12-13T08:45:24.987Z,45.40
2017-12-13T08:47:52.858Z,45.10
2017-12-13T08:50:20.696Z,44.70
2017-12-13T08:52:48.564Z,44.50
2017-12-13T08:55:16.382Z,44.00
2017-12-13T08:57:44.963Z,43.60
2017-12-13T09:00:12.835Z,43.60
2017-12-13T09:02:41.457Z,43.50
2017-12-13T09:05:09.291Z,43.50
2017-12-13T09:07:37.932Z,43.20
2017-12-13T09:10:05.771Z,43.70
2017-12-13T09:12:33.580Z,43.30
2017-12-13T09:15:01.383Z,43.80
2017-12-13T09:17:29.266Z,43.70
2017-12-13T09:19:57.069Z,43.00
2017-12-13T09:22:24.892Z,41.00
2017-12-13T09:24:52.764Z,40.60
2017-12-13T09:27:20.612Z,40.50
2017-12-13T09:29:48.433Z,40.40
2017-12-13T09:32:16.243Z,40.20
2017-12-13T09:34:44.107Z,39.80
2017-12-13T09:37:11.928Z,39.80
2017-12-13T09:39:39.800Z,39.30
2017-12-13T09:42:07.629Z,38.40
2017-12-13T09:44:35.503Z,38.50
2017-12-13T09:47:03.387Z,37.70
2017-12-13T09:49:31.209Z,38.00
2017-12-13T09:51:59.024Z,38.00
2017-12-13T09:54:26.859Z,37.80
2017-12-13T09:56:54.752Z,37.00
2017-12-13T09:59:22.626Z,36.80
2017-12-13T10:01:50.490Z,36.20
2017-12-13T10:04:18.624Z,35.80
2017-12-13T10:06:46.464Z,35.80
2017-12-13T10:09:14.273Z,35.60
2017-12-13T10:11:42.176Z,35.30
2017-12-13T10:14:10.952Z,35.00
2017-12-13T10:16:38.784Z,35.00
2017-12-13T10:19:06.787Z,35.10
2017-12-13T10:21:34.620Z,35.30
2017-12-13T10:24:02.455Z,35.50
2017-12-13T10:26:31.078Z,36.00
2017-12-13T10:28:58.998Z,36.00
2017-12-13T10:31:26.862Z,36.10
2017-12-13T10:33:54.722Z,36.90
2017-12-13T10:36:23.339Z,36.90
2017-12-13T10:38:51.391Z,36.90
2017-12-13T10:41:19.173Z,36.30
2017-12-13T10:43:46.969Z,36.50
2017-12-13T10:46:14.790Z,36.30
2017-12-13T10:48:42.644Z,36.60
2017-12-13T10:51:10.476Z,36.80
2017-12-13T10:53:38.330Z,36.70
2017-12-13T10:56:06.124Z,36.20
2017-12-13T10:58:34.687Z,37.00
2017-12-13T11:01:02.536Z,37.00
2017-12-13T11:03:30.395Z,37.50
2017-12-13T11:05:58.490Z,37.80
2017-12-13T11:08:26.326Z,36.70
2017-12-13T11:10:54.895Z,36.70
2017-12-13T11:13:22.695Z,36.70
2017-12-13T11:15:50.618Z,36.40
2017-12-13T11:18:18.419Z,35.90
2017-12-13T11:20:46.311Z,35.90
2017-12-13T11:23:14.180Z,35.50
2017-12-13T11:25:41.996Z,35.30
2017-12-13T11:28:10.008Z,34.80
2017-12-13T11:30:37.924Z,34.20
2017-12-13T11:33:05.966Z,34.20
2017-12-13T11:35:34.556Z,32.10
2017-12-13T11:38:03.194Z,32.40
2017-12-13T11:40:30.987Z,32.40
2017-12-13T11:42:58.800Z,32.10
2017-12-13T11:45:26.620Z,32.80
2017-12-13T11:47:54.480Z,33.10
2017-12-13T11:50:22.415Z,33.30
2017-12-13T11:52:50.246Z,33.60
2017-12-13T11:55:18.087Z,34.70
2017-12-13T11:57:46.846Z,35.00
2017-12-13T12:00:14.779Z,35.00
2017-12-13T12:02:42.567Z,35.30
2017-12-13T12:05:10.394Z,35.90
2017-12-13T12:07:38.264Z,36.20
2017-12-13T12:10:06.089Z,37.20
2017-12-13T12:12:33.951Z,37.50
2017-12-13T12:15:01.759Z,37.70
2017-12-13T12:17:30.346Z,38.40
2017-12-13T12:19:58.212Z,38.40
2017-12-13T12:22:26.004Z,38.70
2017-12-13T12:24:53.801Z,38.80
2017-12-13T12:27:22.424Z,39.40
2017-12-13T12:29:50.233Z,39.50
2017-12-13T12:32:18.206Z,39.80
2017-12-13T12:34:46.087Z,40.00
2017-12-13T12:37:14.050Z,39.70
2017-12-13T12:39:41.867Z,39.90
2017-12-13T12:42:09.659Z,40.30
2017-12-13T12:44:37.442Z,40.50
2017-12-13T12:47:05.251Z,40.60
2017-12-13T12:49:33.100Z,40.50
2017-12-13T12:52:01.691Z,41.00
2017-12-13T12:54:30.326Z,41.20
2017-12-13T12:56:58.140Z,41.20
2017-12-13T12:59:26.711Z,41.30
2017-12-13T13:01:55.265Z,41.50
2017-12-13T13:04:23.057Z,41.50
2017-12-13T13:06:51.699Z,42.20
2017-12-13T13:09:19.575Z,42.20
2017-12-13T13:11:47.410Z,42.40
2017-12-13T13:14:15.287Z,42.70
2017-12-13T13:16:43.155Z,42.60
2017-12-13T13:19:11.099Z,43.00
2017-12-13T13:21:38.928Z,43.10
2017-12-13T13:24:06.811Z,43.80
2017-12-13T13:26:34.750Z,44.20
2017-12-13T13:29:02.592Z,44.40
2017-12-13T13:31:30.416Z,44.70
2017-12-13T13:33:59.014Z,45.40
2017-12-13T13:36:26.828Z,45.40
2017-12-13T13:38:54.684Z,46.10
2017-12-13T13:41:22.463Z,46.20
2017-12-13T13:43:50.258Z,46.30
2017-12-13T13:46:20.927Z,46.80
2017-12-13T13:48:48.819Z,46.90
2017-12-13T13:51:16.645Z,47.10
2017-12-13T13:53:44.460Z,47.20
2017-12-13T13:56:12.238Z,47.00
2017-12-13T13:58:40.849Z,47.40
2017-12-13T14:01:08.667Z,47.40
2017-12-13T14:03:36.513Z,47.80
2017-12-13T14:06:04.355Z,48.20
2017-12-13T14:08:32.127Z,48.20
2017-12-13T14:10:59.921Z,48.30
2017-12-13T14:13:27.783Z,48.30
2017-12-13T14:15:55.572Z,48.50
2017-12-13T14:18:23.404Z,48.60
2017-12-13T14:20:51.319Z,48.70
2017-12-13T14:23:19.185Z,49.00
2017-12-13T14:25:47.776Z,49.30
2017-12-13T14:28:15.805Z,49.30
2017-12-13T14:30:43.640Z,49.70
2017-12-13T14:33:11.464Z,50.20
2017-12-13T14:35:40.079Z,49.50
2017-12-13T14:38:07.860Z,49.50
2017-12-13T14:40:35.940Z,49.30
2017-12-13T14:43:03.819Z,49.80
2017-12-13T14:45:31.636Z,50.00
2017-12-13T14:47:59.473Z,49.90
2017-12-13T14:50:28.142Z,49.90
2017-12-13T14:52:56.841Z,49.90
2017-12-13T14:55:24.699Z,50.20
2017-12-13T14:57:52.616Z,50.20
2017-12-13T15:00:20.594Z,50.30
2017-12-13T15:02:48.416Z,50.60
2017-12-13T15:05:17.020Z,50.50
2017-12-13T15:07:44.894Z,50.50
2017-12-13T15:10:12.718Z,51.00
2017-12-13T15:12:40.533Z,51.10
2017-12-13T15:15:08.349Z,51.20
2017-12-13T15:17:36.156Z,51.00
2017-12-13T15:20:03.989Z,51.20
2017-12-13T15:22:31.790Z,51.50
2017-12-13T15:24:59.642Z,51.70
2017-12-13T15:27:27.461Z,51.70
2017-12-13T15:29:55.242Z,51.90
2017-12-13T15:32:23.035Z,51.50
2017-12-13T15:34:50.896Z,51.50
2017-12-13T15:37:18.794Z,51.70
2017-12-13T15:39:46.582Z,51.70
2017-12-13T15:42:14.416Z,51.80
2017-12-13T15:44:42.236Z,52.20
2017-12-13T15:47:10.138Z,52.50
2017-12-13T15:49:38.083Z,52.30
2017-12-13T15:52:06.075Z,51.90
2017-12-13T15:54:33.903Z,52.10
2017-12-13T15:57:01.676Z,52.20
2017-12-13T15:59:29.558Z,52.20
2017-12-13T16:01:58.123Z,52.10
2017-12-13T16:04:25.900Z,52.10
2017-12-13T16:06:54.452Z,51.70
2017-12-13T16:09:22.249Z,51.70
2017-12-13T16:11:50.814Z,51.20
2017-12-13T16:14:18.676Z,51.20
2017-12-13T16:16:47.227Z,50.20
2017-12-13T16:19:15.031Z,50.20
2017-12-13T16:21:42.927Z,49.70
2017-12-13T16:24:10.755Z,49.90
2017-12-13T16:26:39.480Z,50.40
2017-12-13T16:29:07.363Z,50.50
2017-12-13T16:31:35.208Z,50.30
2017-12-13T16:34:03.071Z,50.20
2017-12-13T16:36:30.896Z,50.20
2017-12-13T16:38:58.842Z,50.20
2017-12-13T16:41:26.647Z,50.20
2017-12-13T16:43:54.478Z,50.30
2017-12-13T16:46:22.303Z,50.40
2017-12-13T16:48:50.135Z,50.50
2017-12-13T16:51:18.020Z,50.80
2017-12-13T16:53:46.604Z,51.10
2017-12-13T16:56:14.467Z,51.10
2017-12-13T16:58:43.076Z,51.20
2017-12-13T17:01:11.009Z,51.20
2017-12-13T17:03:38.835Z,51.20
2017-12-13T17:06:06.755Z,51.20
2017-12-13T17:08:35.495Z,51.10
2017-12-13T17:11:03.411Z,51.10
2017-12-13T17:13:31.312Z,50.90
2017-12-13T17:15:59.206Z,50.60
2017-12-13T17:18:27.115Z,50.50
2017-12-13T17:20:55.720Z,50.20
2017-12-13T17:23:23.556Z,50.20
2017-12-13T17:25:52.230Z,50.10
2017-12-13T17:28:20.855Z,50.00
2017-12-13T17:30:50.214Z,50.00
2017-12-13T17:33:19.795Z,49.50
2017-12-13T17:35:47.821Z,49.50
2017-12-13T17:38:15.676Z,49.40
2017-12-13T17:40:44.347Z,49.20
2017-12-13T17:43:12.965Z,49.40
2017-12-13T17:45:40.820Z,49.40
2017-12-13T17:48:08.639Z,49.30
2017-12-13T17:50:36.609Z,49.20
2017-12-13T17:53:04.534Z,49.20
2017-12-13T17:55:32.363Z,49.30
2017-12-13T17:58:01.025Z,49.30
2017-12-13T18:00:28.887Z,49.30
2017-12-13T18:02:56.715Z,49.40
2017-12-13T18:05:24.615Z,49.20
2017-12-13T18:07:52.411Z,49.20
2017-12-13T18:10:21.039Z,49.20
2017-12-13T18:12:48.886Z,49.20
2017-12-13T18:15:16.764Z,49.10
2017-12-13T18:17:44.600Z,48.90
2017-12-13T18:20:13.203Z,49.00
2017-12-13T18:22:41.089Z,49.00
2017-12-13T18:25:08.946Z,48.90
2017-12-13T18:27:36.842Z,49.00
2017-12-13T18:30:04.720Z,49.00
2017-12-13T18:32:32.594Z,49.00
2017-12-13T18:35:00.467Z,48.80
2017-12-13T18:37:29.123Z,49.00
2017-12-13T18:39:57.005Z,49.00
2017-12-13T18:42:24.873Z,49.00
2017-12-13T18:44:52.783Z,49.00
2017-12-13T18:47:20.613Z,49.00
2017-12-13T18:49:48.428Z,48.90
2017-12-13T18:52:16.304Z,49.00
2017-12-13T18:54:44.207Z,48.90
2017-12-13T18:57:12.108Z,49.00
2017-12-13T18:59:40.770Z,49.00
2017-12-13T19:02:08.624Z,48.90
2017-12-13T19:04:36.504Z,49.10
2017-12-13T19:07:05.782Z,48.90
2017-12-13T19:09:33.765Z,48.90
2017-12-13T19:12:02.445Z,48.90
2017-12-13T19:14:30.327Z,48.90
2017-12-13T19:16:58.149Z,48.90
2017-12-13T19:19:25.980Z,49.20
2017-12-13T19:21:54.643Z,49.10
2017-12-13T19:24:23.252Z,49.10
2017-12-13T19:26:51.039Z,49.10
2017-12-13T19:29:18.856Z,48.90
2017-12-13T19:31:47.413Z,49.00
2017-12-13T19:34:15.221Z,49.00
2017-12-13T19:36:43.820Z,48.70
2017-12-13T19:39:11.707Z,48.70
2017-12-13T19:41:39.489Z,48.70
2017-12-13T19:44:07.356Z,49.00
2017-12-13T19:46:35.214Z,49.50
2017-12-13T19:49:02.960Z,49.30
2017-12-13T19:51:30.694Z,49.40
2017-12-13T19:53:59.252Z,49.60
2017-12-13T19:56:27.016Z,49.60
2017-12-13T19:58:54.768Z,49.70
2017-12-13T20:01:22.599Z,49.70
2017-12-13T20:03:50.376Z,49.40
2017-12-13T20:06:18.190Z,49.40
2017-12-13T20:08:46.731Z,49.80
2017-12-13T20:11:14.483Z,49.80
2017-12-13T20:13:42.275Z,49.70
2017-12-13T20:16:10.061Z,49.90
2017-12-13T20:18:38.686Z,49.60
2017-12-13T20:21:06.508Z,49.60
2017-12-13T20:23:35.078Z,49.70
2017-12-13T20:26:02.852Z,49.70
2017-12-13T20:28:31.438Z,49.20
2017-12-13T20:31:00.051Z,49.20
2017-12-13T20:33:27.864Z,49.20
2017-12-13T20:35:59.088Z,49.10
2017-12-13T20:38:26.940Z,49.00
2017-12-13T20:40:54.723Z,48.90
2017-12-13T20:43:22.551Z,49.00
2017-12-13T20:45:50.304Z,49.10
2017-12-13T20:48:18.864Z,49.20
2017-12-13T20:50:46.675Z,49.20
2017-12-13T20:53:14.515Z,48.70
2017-12-13T20:55:43.032Z,49.00
2017-12-13T20:58:10.766Z,49.00
2017-12-13T21:00:39.339Z,49.10
2017-12-13T21:03:07.955Z,49.40
2017-12-13T21:05:35.752Z,49.50
2017-12-13T21:08:03.502Z,49.30
2017-12-13T21:10:31.343Z,48.90
2017-12-13T21:12:59.192Z,49.00
2017-12-13T21:15:27.703Z,49.50
2017-12-13T21:17:55.469Z,49.50
2017-12-13T21:20:23.249Z,49.70
2017-12-13T21:22:51.005Z,50.00
2017-12-13T21:25:18.800Z,50.00
2017-12-13T21:27:46.564Z,50.30
2017-12-13T21:30:14.415Z,50.30
2017-12-13T21:32:42.234Z,50.20
2017-12-13T21:35:10.008Z,50.00
2017-12-13T21:37:38.486Z,49.90
2017-12-13T21:40:06.294Z,50.20
2017-12-13T21:42:34.136Z,50.20
2017-12-13T21:45:01.901Z,50.30
2017-12-13T21:47:29.672Z,50.40
2017-12-13T21:49:57.469Z,50.10
2017-12-13T21:52:25.252Z,50.10
2017-12-13T21:54:53.844Z,50.10
2017-12-13T21:57:21.704Z,50.10
2017-12-13T21:59:50.297Z,50.40
2017-12-13T22:02:18.106Z,50.40
2017-12-13T22:04:45.868Z,50.40
2017-12-13T22:07:13.658Z,50.40
2017-12-13T22:09:41.452Z,50.50
2017-12-13T22:12:09.337Z,50.80
2017-12-13T22:14:37.186Z,50.70
2017-12-13T22:17:06.807Z,51.00
2017-12-13T22:19:34.634Z,51.10
2017-12-13T22:22:03.199Z,51.40
2017-12-13T22:24:30.963Z,51.30
2017-12-13T22:26:58.709Z,51.40
2017-12-13T22:29:26.532Z,51.60
2017-12-13T22:31:55.042Z,51.80
2017-12-13T22:34:22.818Z,51.80
2017-12-13T22:36:50.583Z,52.10
2017-12-13T22:39:18.347Z,52.00
2017-12-13T22:41:46.212Z,51.90
2017-12-13T22:44:14.053Z,52.20
2017-12-13T22:46:41.876Z,52.60
2017-12-13T22:49:10.452Z,52.50
2017-12-13T22:51:38.231Z,52.50
2017-12-13T22:54:06.778Z,52.40
2017-12-13T22:56:34.539Z,52.40
2017-12-13T22:59:02.306Z,52.20
2017-12-13T23:01:30.181Z,52.10
2017-12-13T23:03:58.042Z,52.10
2017-12-13T23:06:25.872Z,52.00
2017-12-13T23:08:53.632Z,52.20
2017-12-13T23:11:21.405Z,52.20
2017-12-13T23:13:49.204Z,52.20
2017-12-13T23:16:16.961Z,52.20
2017-12-13T23:18:44.815Z,52.10
2017-12-13T23:21:12.599Z,52.20
2017-12-13T23:23:40.375Z,52.20
2017-12-13T23:26:08.183Z,52.30
2017-12-13T23:28:36.063Z,52.30
2017-12-13T23:31:03.820Z,52.30
2017-12-13T23:33:31.598Z,52.40
2017-12-13T23:35:59.377Z,52.20
2017-12-13T23:38:27.126Z,52.30
2017-12-13T23:40:54.971Z,52.30
2017-12-13T23:43:22.736Z,52.40
2017-12-13T23:45:50.547Z,52.50
2017-12-13T23:48:18.332Z,52.60
2017-12-13T23:50:46.920Z,52.40
2017-12-13T23:53:15.613Z,52.40
2017-12-13T23:55:44.197Z,52.40
2017-12-13T23:58:11.968Z,52.30
